Time;durP1;ratioP1;P1;durP2;ratioP2;P2;SDS_P1;SDS_P2;PMS_P1;PMS_P2;Temp;Humidity;BMP_temperature;BMP_pressure;BME280_temperature;BME280_humidity;BME280_pressure;Samples;Min_cycle;Max_cycle;Signal;HPM_P1;HPM_P2
2024/04/11 00:02:03;;;;;;;12.77;6.35;;;;;;;;;;5373708;26;20048;-69
2024/04/11 00:04:28;;;;;;;17.90;7.07;;;;;;;;;;5344411;26;20760;-70
2024/04/11 00:06:54;;;;;;;11.43;5.97;;;;;;;;;;5373183;26;20000;-69
2024/04/11 00:09:19;;;;;;;10.45;6.68;;;;;;;;;;5375477;26;20035;-68
2024/04/11 00:11:45;;;;;;;14.02;6.70;;;;;;;;;;5373613;26;20069;-71
2024/04/11 00:14:10;;;;;;;13.00;7.05;;;;;;;;;;5373378;26;20000;-69
2024/04/11 00:16:36;;;;;;;13.88;6.90;;;;;;;;;;5373347;26;20004;-71
2024/04/11 00:19:01;;;;;;;13.52;6.53;;;;;;;;;;5373525;26;20328;-70
2024/04/11 00:21:27;;;;;;;16.85;6.60;;;;;;;;;;5373992;26;20455;-70
2024/04/11 00:23:53;;;;;;;12.45;6.57;;;;;;;;;;5376009;26;20008;-70
2024/04/11 00:26:18;;;;;;;12.82;7.05;;;;;;;;;;5373752;26;20015;-71
2024/04/11 00:28:44;;;;;;;13.97;6.83;;;;;;;;;;5375093;26;20795;-70
2024/04/11 00:31:09;;;;;;;12.43;6.93;;;;;;;;;;5374957;26;20008;-70
2024/04/11 00:33:37;;;;;;;9.40;6.10;;;;;;;;;;5375288;26;20073;-70
2024/04/11 00:36:05;;;;;;;12.77;6.25;;;;;;;;;;5376853;26;20008;-70
2024/04/11 00:38:33;;;;;;;12.55;6.50;;;;;;;;;;5378924;26;20000;-68
2024/04/11 00:41:00;;;;;;;17.93;6.37;;;;;;;;;;5378715;26;20039;-70
2024/04/11 00:43:30;;;;;;;16.83;7.03;;;;;;;;;;5377645;26;20332;-68
2024/04/11 00:45:57;;;;;;;10.93;6.20;;;;;;;;;;5376912;26;20007;-69
2024/04/11 00:48:23;;;;;;;10.57;6.30;;;;;;;;;;5376986;26;20448;-70
2024/04/11 00:50:50;;;;;;;9.23;6.27;;;;;;;;;;5376614;26;20012;-68
2024/04/11 00:53:16;;;;;;;10.27;6.28;;;;;;;;;;5376416;26;20011;-70
2024/04/11 00:55:42;;;;;;;11.52;6.35;;;;;;;;;;5377114;26;20004;-69
2024/04/11 00:58:11;;;;;;;10.20;6.17;;;;;;;;;;5376680;26;20073;-69
2024/04/11 01:00:37;;;;;;;11.63;6.83;;;;;;;;;;5376593;26;20001;-70
2024/04/11 01:03:04;;;;;;;13.93;6.67;;;;;;;;;;5378578;26;20008;-69
2024/04/11 01:05:34;;;;;;;10.88;6.80;;;;;;;;;;5378182;26;20538;-70
2024/04/11 01:08:02;;;;;;;10.68;7.13;;;;;;;;;;5378481;26;20011;-70
2024/04/11 01:10:27;;;;;;;9.97;6.27;;;;;;;;;;5378465;26;20005;-69
2024/04/11 01:12:53;;;;;;;12.67;6.03;;;;;;;;;;5378060;26;20015;-70
2024/04/11 01:15:18;;;;;;;12.50;7.50;;;;;;;;;;5375932;26;20008;-68
2024/04/11 01:17:47;;;;;;;12.25;6.75;;;;;;;;;;5376359;26;20015;-68
2024/04/11 01:20:12;;;;;;;11.95;6.35;;;;;;;;;;5378002;26;20011;-68
2024/04/11 01:22:41;;;;;;;13.90;6.77;;;;;;;;;;5378082;26;19996;-70
2024/04/11 01:25:12;;;;;;;12.20;5.73;;;;;;;;;;5377583;26;20366;-69
2024/04/11 01:27:38;;;;;;;9.23;6.00;;;;;;;;;;5348369;26;20074;-69
2024/04/11 01:30:04;;;;;;;11.70;6.60;;;;;;;;;;5378026;26;20001;-70
2024/04/11 01:32:30;;;;;;;7.70;5.45;;;;;;;;;;5378110;26;20097;-68
2024/04/11 01:34:56;;;;;;;14.23;6.80;;;;;;;;;;5378282;26;20000;-70
2024/04/11 01:37:23;;;;;;;10.47;6.03;;;;;;;;;;5375776;26;20644;-70
2024/04/11 01:39:49;;;;;;;9.10;5.57;;;;;;;;;;5376194;26;20447;-70
2024/04/11 01:42:15;;;;;;;10.30;5.80;;;;;;;;;;5376053;26;20023;-69
2024/04/11 01:44:40;;;;;;;10.80;6.37;;;;;;;;;;5378209;26;20745;-69
2024/04/11 01:47:06;;;;;;;9.27;6.00;;;;;;;;;;5377658;26;20011;-69
2024/04/11 01:49:31;;;;;;;10.37;6.70;;;;;;;;;;5347721;26;20004;-70
2024/04/11 01:51:57;;;;;;;11.53;6.17;;;;;;;;;;5373180;26;20005;-69
2024/04/11 01:54:23;;;;;;;10.80;6.10;;;;;;;;;;5341697;26;20012;-69
2024/04/11 01:56:49;;;;;;;12.20;6.10;;;;;;;;;;5341653;26;20020;-71
2024/04/11 01:59:19;;;;;;;8.67;5.57;;;;;;;;;;5340790;26;20400;-69
2024/04/11 02:01:44;;;;;;;14.37;6.57;;;;;;;;;;5340617;26;20001;-71
2024/04/11 02:04:10;;;;;;;11.43;6.73;;;;;;;;;;5342406;26;20025;-69
2024/04/11 02:06:36;;;;;;;9.70;5.80;;;;;;;;;;5340596;26;20023;-69
2024/04/11 02:09:09;;;;;;;10.67;6.03;;;;;;;;;;5342170;26;20012;-69
2024/04/11 02:11:46;;;;;;;12.13;6.63;;;;;;;;;;5342738;26;20001;-68
2024/04/11 02:14:12;;;;;;;11.43;7.50;;;;;;;;;;5341222;26;20441;-69
2024/04/11 02:16:38;;;;;;;12.30;5.93;;;;;;;;;;5341908;26;20055;-69
2024/04/11 02:19:08;;;;;;;12.63;6.13;;;;;;;;;;5340885;26;20004;-69
2024/04/11 02:21:43;;;;;;;13.37;6.50;;;;;;;;;;5342759;26;20771;-68
2024/04/11 02:24:16;;;;;;;17.50;5.83;;;;;;;;;;5340778;26;20001;-70
2024/04/11 02:26:47;;;;;;;12.43;6.57;;;;;;;;;;5344007;26;20005;-68
2024/04/11 02:29:18;;;;;;;12.87;6.23;;;;;;;;;;5345851;26;20001;-67
2024/04/11 02:31:43;;;;;;;10.80;6.23;;;;;;;;;;5343886;26;20139;-68
2024/04/11 02:34:09;;;;;;;13.23;6.53;;;;;;;;;;5343682;26;20027;-68
2024/04/11 02:36:34;;;;;;;11.63;6.13;;;;;;;;;;5345667;26;20475;-68
2024/04/11 02:39:01;;;;;;;12.10;6.27;;;;;;;;;;5344096;26;20078;-68
2024/04/11 02:41:29;;;;;;;11.37;6.03;;;;;;;;;;5346011;26;20020;-68
2024/04/11 02:43:55;;;;;;;15.30;6.83;;;;;;;;;;5373764;26;20536;-71
2024/04/11 02:46:21;;;;;;;9.30;5.60;;;;;;;;;;5343056;26;20005;-70
2024/04/11 02:48:50;;;;;;;13.50;6.43;;;;;;;;;;5364664;26;20127;-69
2024/04/11 02:51:17;;;;;;;9.60;6.07;;;;;;;;;;5375207;26;20004;-70
2024/04/11 02:53:43;;;;;;;8.87;5.87;;;;;;;;;;5375140;26;20095;-70
2024/04/11 02:56:10;;;;;;;11.27;6.20;;;;;;;;;;5376778;26;20000;-69
2024/04/11 02:58:37;;;;;;;9.53;5.93;;;;;;;;;;5373584;26;20046;-68
2024/04/11 03:01:06;;;;;;;9.67;6.03;;;;;;;;;;5376715;26;20077;-72
2024/04/11 03:03:38;;;;;;;10.73;5.63;;;;;;;;;;5375845;26;20019;-69
2024/04/11 03:06:18;;;;;;;12.45;6.53;;;;;;;;;;5377042;26;20008;-70
2024/04/11 03:08:44;;;;;;;12.83;6.03;;;;;;;;;;5375068;26;20000;-70
2024/04/11 03:11:11;;;;;;;14.90;6.67;;;;;;;;;;5376436;26;20000;-69
2024/04/11 03:13:37;;;;;;;11.93;6.27;;;;;;;;;;5374272;26;20076;-69
2024/04/11 03:16:03;;;;;;;16.43;6.67;;;;;;;;;;5376494;26;20044;-68
2024/04/11 03:18:30;;;;;;;17.57;6.33;;;;;;;;;;5376718;26;20012;-70
2024/04/11 03:20:57;;;;;;;15.30;6.47;;;;;;;;;;5376610;26;20331;-69
2024/04/11 03:23:24;;;;;;;11.57;6.20;;;;;;;;;;5374985;26;20004;-70
2024/04/11 03:25:50;;;;;;;9.73;5.80;;;;;;;;;;5375038;26;20000;-70
2024/04/11 03:28:16;;;;;;;13.63;5.73;;;;;;;;;;5376279;26;20047;-69
2024/04/11 03:30:53;;;;;;;11.37;6.20;;;;;;;;;;5374628;26;20066;-69
2024/04/11 03:33:18;;;;;;;11.97;6.57;;;;;;;;;;5376218;26;20090;-70
2024/04/11 03:36:10;;;;;;;12.37;5.60;;;;;;;;;;5374631;26;20011;-70
2024/04/11 03:38:37;;;;;;;12.75;7.10;;;;;;;;;;5403783;26;20079;-68
2024/04/11 03:41:04;;;;;;;10.00;6.60;;;;;;;;;;5374139;26;20000;-70
2024/04/11 03:43:37;;;;;;;9.30;5.63;;;;;;;;;;5375549;26;20008;-70
2024/04/11 03:46:09;;;;;;;10.50;5.67;;;;;;;;;;5374460;26;20336;-72
2024/04/11 03:48:36;;;;;;;15.23;7.60;;;;;;;;;;5356557;26;20341;-72
2024/04/11 03:51:19;;;;;;;8.70;6.07;;;;;;;;;;5340970;26;20001;-74
2024/04/11 03:53:46;;;;;;;9.27;6.00;;;;;;;;;;5340816;26;20005;-72
2024/04/11 03:56:15;;;;;;;13.07;6.10;;;;;;;;;;5339726;26;20016;-73
2024/04/11 03:58:41;;;;;;;11.70;6.03;;;;;;;;;;5340675;26;20012;-74
2024/04/11 04:01:12;;;;;;;10.20;5.43;;;;;;;;;;5340475;26;20001;-73
2024/04/11 04:03:41;;;;;;;7.97;5.53;;;;;;;;;;5338972;26;20412;-73
2024/04/11 04:06:08;;;;;;;14.43;6.77;;;;;;;;;;5338484;26;20012;-72
2024/04/11 04:08:35;;;;;;;9.67;5.97;;;;;;;;;;5338430;26;20005;-72
2024/04/11 04:11:01;;;;;;;11.90;7.27;;;;;;;;;;5341331;26;20074;-73
2024/04/11 04:13:27;;;;;;;8.90;5.90;;;;;;;;;;5341926;26;20013;-73
2024/04/11 04:15:56;;;;;;;14.17;6.23;;;;;;;;;;5343950;26;20001;-73
2024/04/11 04:18:22;;;;;;;31.23;16.33;;;;;;;;;;5371113;26;20469;-73
2024/04/11 04:20:58;;;;;;;14.37;7.00;;;;;;;;;;5344016;26;20001;-74
2024/04/11 04:23:24;;;;;;;11.83;6.57;;;;;;;;;;5341579;26;20005;-73
2024/04/11 04:25:59;;;;;;;12.57;6.80;;;;;;;;;;5313252;26;20020;-72
2024/04/11 04:28:30;;;;;;;11.00;6.27;;;;;;;;;;5341768;26;20051;-72
2024/04/11 04:31:13;;;;;;;16.07;6.53;;;;;;;;;;5343954;26;20019;-71
2024/04/11 04:33:39;;;;;;;12.57;7.23;;;;;;;;;;5341533;26;20346;-73
2024/04/11 04:36:26;;;;;;;12.57;7.37;;;;;;;;;;5342052;26;20349;-71
2024/04/11 04:38:52;;;;;;;12.63;6.37;;;;;;;;;;5342827;26;20321;-72
2024/04/11 04:41:18;;;;;;;15.63;6.37;;;;;;;;;;5341503;26;19997;-73
2024/04/11 04:43:45;;;;;;;18.37;6.70;;;;;;;;;;5341421;26;20198;-72
2024/04/11 04:46:15;;;;;;;12.87;6.90;;;;;;;;;;5342648;26;20341;-71
2024/04/11 04:48:41;;;;;;;15.83;7.10;;;;;;;;;;5361810;26;20001;-72
2024/04/11 04:51:07;;;;;;;13.43;7.10;;;;;;;;;;5376138;26;20301;-73
2024/04/11 04:53:32;;;;;;;13.17;6.83;;;;;;;;;;5377074;26;20041;-74
2024/04/11 04:55:58;;;;;;;11.13;6.17;;;;;;;;;;5376284;26;20508;-73
2024/04/11 04:58:24;;;;;;;13.17;7.00;;;;;;;;;;5375866;26;20012;-73
2024/04/11 05:00:50;;;;;;;13.13;6.13;;;;;;;;;;5376406;26;20550;-71
2024/04/11 05:03:15;;;;;;;10.67;6.43;;;;;;;;;;5377786;26;20032;-72
2024/04/11 05:05:41;;;;;;;16.20;6.60;;;;;;;;;;5376547;26;20015;-70
2024/04/11 05:08:08;;;;;;;14.30;6.23;;;;;;;;;;5376051;26;20004;-72
2024/04/11 05:10:42;;;;;;;14.37;7.03;;;;;;;;;;5375958;26;20639;-73
2024/04/11 05:13:11;;;;;;;15.73;6.87;;;;;;;;;;5375601;26;20032;-73
2024/04/11 05:15:37;;;;;;;15.83;8.17;;;;;;;;;;5375559;26;20073;-73
2024/04/11 05:18:04;;;;;;;14.17;7.97;;;;;;;;;;5376242;26;20020;-71
2024/04/11 05:20:32;;;;;;;15.40;7.87;;;;;;;;;;5375406;26;20005;-72
2024/04/11 05:22:57;;;;;;;12.80;7.70;;;;;;;;;;5375096;26;20004;-72
2024/04/11 05:25:23;;;;;;;13.27;7.63;;;;;;;;;;5375593;26;20074;-73
2024/04/11 05:27:48;;;;;;;15.13;7.23;;;;;;;;;;5377489;26;20427;-74
2024/04/11 05:30:14;;;;;;;12.00;7.67;;;;;;;;;;5375640;26;20019;-74
2024/04/11 05:32:44;;;;;;;12.63;7.73;;;;;;;;;;5376046;26;20058;-72
2024/04/11 05:35:09;;;;;;;12.63;7.33;;;;;;;;;;5379160;26;20017;-73
2024/04/11 05:37:36;;;;;;;11.33;7.07;;;;;;;;;;5376101;26;20004;-73
2024/04/11 05:40:05;;;;;;;16.77;8.27;;;;;;;;;;5377741;26;20004;-72
2024/04/11 05:42:31;;;;;;;14.03;7.23;;;;;;;;;;5374842;26;20078;-72
2024/04/11 05:44:57;;;;;;;14.67;8.37;;;;;;;;;;5375350;26;20032;-73
2024/04/11 05:47:23;;;;;;;13.87;7.30;;;;;;;;;;5375012;26;20112;-71
2024/04/11 05:49:48;;;;;;;16.23;7.07;;;;;;;;;;5376896;26;20051;-73
2024/04/11 05:52:14;;;;;;;12.13;7.47;;;;;;;;;;5374527;26;20007;-73
2024/04/11 05:54:40;;;;;;;20.90;8.33;;;;;;;;;;5370015;26;20000;-73
2024/04/11 05:57:05;;;;;;;16.00;7.97;;;;;;;;;;5370159;26;20099;-72
2024/04/11 05:59:32;;;;;;;14.77;9.03;;;;;;;;;;5375234;26;20064;-73
2024/04/11 06:02:00;;;;;;;14.10;8.53;;;;;;;;;;5374308;26;20001;-74
2024/04/11 06:04:26;;;;;;;12.20;8.13;;;;;;;;;;5377318;26;20078;-75
2024/04/11 06:06:52;;;;;;;16.63;8.47;;;;;;;;;;5377185;26;20873;-74
2024/04/11 06:09:17;;;;;;;22.07;14.23;;;;;;;;;;5366582;26;20000;-73
2024/04/11 06:11:43;;;;;;;26.27;20.23;;;;;;;;;;5378084;26;19996;-74
2024/04/11 06:14:10;;;;;;;19.77;12.43;;;;;;;;;;5342840;26;20012;-72
2024/04/11 06:16:39;;;;;;;19.67;10.87;;;;;;;;;;5375493;26;20408;-74
2024/04/11 06:19:05;;;;;;;14.50;9.03;;;;;;;;;;5374776;26;20015;-73
2024/04/11 06:21:36;;;;;;;17.30;8.53;;;;;;;;;;5373868;26;20044;-73
2024/04/11 06:24:22;;;;;;;16.37;9.90;;;;;;;;;;5373134;26;19996;-74
2024/04/11 06:26:48;;;;;;;14.30;7.87;;;;;;;;;;5363450;26;20012;-74
2024/04/11 06:29:19;;;;;;;15.57;7.73;;;;;;;;;;5368581;26;20039;-73
2024/04/11 06:31:46;;;;;;;13.43;7.60;;;;;;;;;;5372760;26;20011;-72
2024/04/11 06:34:13;;;;;;;12.90;7.43;;;;;;;;;;5374129;26;20012;-72
2024/04/11 06:36:39;;;;;;;12.60;8.02;;;;;;;;;;5339931;26;20157;-74
2024/04/11 06:39:09;;;;;;;17.25;7.43;;;;;;;;;;5361234;26;20440;-73
2024/04/11 06:41:36;;;;;;;13.70;7.23;;;;;;;;;;5341767;26;20008;-71
2024/04/11 06:44:03;;;;;;;11.35;7.53;;;;;;;;;;5369757;26;20028;-71
2024/04/11 06:46:29;;;;;;;15.02;8.05;;;;;;;;;;5367066;26;20095;-71
2024/04/11 06:48:57;;;;;;;19.73;7.95;;;;;;;;;;5365470;26;20008;-70
2024/04/11 06:51:25;;;;;;;12.77;7.60;;;;;;;;;;5354858;26;20000;-71
2024/04/11 06:53:51;;;;;;;11.68;7.55;;;;;;;;;;5356450;26;20012;-74
2024/04/11 06:56:22;;;;;;;12.30;7.13;;;;;;;;;;5343277;26;20000;-69
2024/04/11 06:58:51;;;;;;;12.50;6.95;;;;;;;;;;5405959;26;20012;-72
2024/04/11 07:01:16;;;;;;;11.60;7.50;;;;;;;;;;5370402;26;20023;-71
2024/04/11 07:03:49;;;;;;;14.55;7.70;;;;;;;;;;5388315;26;20057;-71
2024/04/11 07:06:21;;;;;;;15.07;7.28;;;;;;;;;;5378159;26;20550;-71
2024/04/11 07:09:04;;;;;;;17.02;8.07;;;;;;;;;;5345975;26;20012;-74
2024/04/11 07:11:32;;;;;;;15.77;7.55;;;;;;;;;;5378696;26;20091;-74
2024/04/11 07:14:05;;;;;;;13.85;7.07;;;;;;;;;;5371590;26;20013;-75
2024/04/11 07:16:40;;;;;;;13.30;7.45;;;;;;;;;;5365432;26;20026;-73
2024/04/11 07:19:11;;;;;;;14.63;6.95;;;;;;;;;;5383992;26;20046;-74
2024/04/11 07:21:38;;;;;;;;;;;;;;;;;;5376496;26;20004;-75
2024/04/11 07:24:06;;;;;;;17.20;8.20;;;;;;;;;;5375005;26;20002;-75
2024/04/11 07:26:53;;;;;;;13.27;7.40;;;;;;;;;;5372488;26;20070;-75
2024/04/11 07:29:22;;;;;;;12.25;7.65;;;;;;;;;;5373180;26;20482;-76
2024/04/11 07:31:48;;;;;;;17.75;7.53;;;;;;;;;;5372456;26;20012;-74
2024/04/11 07:34:15;;;;;;;11.45;7.53;;;;;;;;;;5396151;26;20012;-78
2024/04/11 07:36:48;;;;;;;12.63;7.60;;;;;;;;;;5368173;26;20000;-75
2024/04/11 07:39:16;;;;;;;12.82;7.22;;;;;;;;;;5371707;26;19996;-73
2024/04/11 07:41:46;;;;;;;12.85;7.22;;;;;;;;;;5356255;26;20000;-74
2024/04/11 07:44:17;;;;;;;15.65;7.63;;;;;;;;;;5360915;26;19992;-76
2024/04/11 07:46:43;;;;;;;10.80;7.40;;;;;;;;;;5371685;26;20107;-74
2024/04/11 07:49:10;;;;;;;13.68;7.53;;;;;;;;;;5368798;26;20040;-75
2024/04/11 07:51:36;;;;;;;16.17;8.38;;;;;;;;;;5388591;26;20059;-75
2024/04/11 07:54:12;;;;;;;17.13;8.80;;;;;;;;;;5364049;26;20444;-74
2024/04/11 07:56:40;;;;;;;21.42;7.82;;;;;;;;;;5361791;26;20016;-76
2024/04/11 07:59:11;;;;;;;15.73;7.72;;;;;;;;;;5369202;26;20408;-74
2024/04/11 08:01:41;;;;;;;14.18;8.18;;;;;;;;;;5361898;26;20023;-75
2024/04/11 08:04:11;;;;;;;15.85;8.98;;;;;;;;;;5366257;26;20007;-77
2024/04/11 08:06:36;;;;;;;17.25;8.25;;;;;;;;;;5363974;26;20065;-74
2024/04/11 08:09:08;;;;;;;14.40;7.45;;;;;;;;;;5371208;26;20008;-75
2024/04/11 08:11:35;;;;;;;15.95;8.07;;;;;;;;;;5371425;26;20000;-76
2024/04/11 08:14:05;;;;;;;12.45;7.25;;;;;;;;;;5332059;26;19993;-73
2024/04/11 08:16:34;;;;;;;13.52;7.85;;;;;;;;;;5360850;26;20618;-73
2024/04/11 08:19:02;;;;;;;12.35;7.47;;;;;;;;;;5367730;26;20008;-74
2024/04/11 08:21:30;;;;;;;13.73;7.28;;;;;;;;;;5368927;26;20007;-72
2024/04/11 08:24:00;;;;;;;13.07;7.95;;;;;;;;;;5365717;26;20535;-76
2024/04/11 08:26:26;;;;;;;16.27;7.20;;;;;;;;;;5370454;26;19996;-77
2024/04/11 08:28:55;;;;;;;12.77;7.40;;;;;;;;;;5366474;26;20345;-76
2024/04/11 08:31:30;;;;;;;16.60;8.07;;;;;;;;;;5366955;26;20041;-75
2024/04/11 08:33:59;;;;;;;13.93;6.70;;;;;;;;;;5364441;26;20027;-74
2024/04/11 08:36:29;;;;;;;13.82;7.00;;;;;;;;;;5364601;26;20467;-75
2024/04/11 08:38:58;;;;;;;11.75;6.20;;;;;;;;;;5371403;26;22155;-73
2024/04/11 08:41:25;;;;;;;11.10;6.80;;;;;;;;;;5365532;26;20016;-72
2024/04/11 08:43:51;;;;;;;12.60;6.05;;;;;;;;;;5360508;26;20545;-73
2024/04/11 08:46:17;;;;;;;13.05;6.10;;;;;;;;;;5371683;26;20336;-73
2024/04/11 08:48:43;;;;;;;10.55;5.80;;;;;;;;;;5359948;26;20008;-75
2024/04/11 08:51:20;;;;;;;12.95;6.22;;;;;;;;;;5365051;26;20571;-75
2024/04/11 08:53:53;;;;;;;10.82;7.13;;;;;;;;;;5369687;26;20001;-74
2024/04/11 08:56:21;;;;;;;8.82;4.55;;;;;;;;;;5337534;26;20434;-72
2024/04/11 08:58:48;;;;;;;8.70;4.63;;;;;;;;;;5363853;26;20017;-73
2024/04/11 09:01:17;;;;;;;7.05;3.97;;;;;;;;;;5364842;26;20133;-73
2024/04/11 09:03:52;;;;;;;6.72;3.35;;;;;;;;;;5412288;26;20064;-71
2024/04/11 09:06:28;;;;;;;9.57;4.05;;;;;;;;;;5313532;26;20007;-73
2024/04/11 09:09:09;;;;;;;7.25;4.50;;;;;;;;;;5369411;26;20011;-73
2024/04/11 09:11:36;;;;;;;8.02;4.18;;;;;;;;;;5360750;26;20007;-75
2024/04/11 09:14:02;;;;;;;9.93;4.50;;;;;;;;;;5364594;26;20023;-74
2024/04/11 09:16:27;;;;;;;18.13;4.57;;;;;;;;;;5366681;26;19992;-72
2024/04/11 09:19:05;;;;;;;3.47;2.33;;;;;;;;;;5368918;26;20061;-73
2024/04/11 09:21:32;;;;;;;7.50;2.15;;;;;;;;;;5366870;26;20014;-72
2024/04/11 09:23:57;;;;;;;8.50;2.67;;;;;;;;;;5368198;26;20017;-73
2024/04/11 09:26:27;;;;;;;11.75;2.50;;;;;;;;;;5362859;26;20015;-74
2024/04/11 09:28:54;;;;;;;12.43;3.30;;;;;;;;;;5365463;26;19993;-74
2024/04/11 09:31:21;;;;;;;11.35;3.45;;;;;;;;;;5365873;26;20020;-75
2024/04/11 09:33:53;;;;;;;5.00;3.22;;;;;;;;;;5373933;26;20007;-76
2024/04/11 09:36:20;;;;;;;7.25;3.42;;;;;;;;;;5376509;26;20010;-74
2024/04/11 09:38:53;;;;;;;4.35;3.20;;;;;;;;;;5376562;26;20015;-73
2024/04/11 09:41:20;;;;;;;6.65;3.72;;;;;;;;;;5364365;26;20047;-73
2024/04/11 09:43:55;;;;;;;6.40;3.42;;;;;;;;;;5367416;26;20000;-74
2024/04/11 09:46:25;;;;;;;7.55;3.58;;;;;;;;;;5371262;26;19996;-73
2024/04/11 09:48:53;;;;;;;;;;;;;;;;;;5369693;26;20009;-75
2024/04/11 09:51:20;;;;;;;7.25;4.00;;;;;;;;;;5373365;26;19964;-74
2024/04/11 09:53:51;;;;;;;12.52;4.70;;;;;;;;;;5372342;26;20008;-74
2024/04/11 09:56:23;;;;;;;9.07;3.58;;;;;;;;;;5368383;26;20314;-72
2024/04/11 09:58:51;;;;;;;5.63;3.63;;;;;;;;;;5310472;26;20005;-71
2024/04/11 10:01:30;;;;;;;8.23;4.22;;;;;;;;;;5372905;26;20004;-73
2024/04/11 10:04:13;;;;;;;8.70;3.03;;;;;;;;;;5345679;26;20015;-71
2024/04/11 10:06:42;;;;;;;8.35;3.75;;;;;;;;;;5376588;26;20775;-72
2024/04/11 10:09:17;;;;;;;8.40;3.75;;;;;;;;;;5376535;26;20000;-72
2024/04/11 10:11:45;;;;;;;8.43;4.18;;;;;;;;;;5375053;26;20001;-71
2024/04/11 10:14:16;;;;;;;8.80;4.20;;;;;;;;;;5384430;26;20004;-74
2024/04/11 10:16:48;;;;;;;6.78;3.67;;;;;;;;;;5373808;26;20015;-75
2024/04/11 10:19:27;;;;;;;7.18;3.50;;;;;;;;;;5396155;26;20082;-71
2024/04/11 10:22:00;;;;;;;12.30;4.40;;;;;;;;;;5401807;26;20086;-73
2024/04/11 10:24:34;;;;;;;10.77;3.70;;;;;;;;;;5356500;26;20004;-73
2024/04/11 10:27:18;;;;;;;5.20;3.53;;;;;;;;;;5373725;26;20000;-73
2024/04/11 10:29:46;;;;;;;7.55;3.95;;;;;;;;;;5375859;26;20041;-74
2024/04/11 10:32:22;;;;;;;8.13;3.25;;;;;;;;;;5384958;26;20036;-74
2024/04/11 10:35:07;;;;;;;6.53;3.50;;;;;;;;;;5378897;26;20464;-72
2024/04/11 10:37:39;;;;;;;6.60;3.42;;;;;;;;;;5357336;26;20534;-71
2024/04/11 10:40:09;;;;;;;7.85;3.38;;;;;;;;;;5345225;26;20565;-72
2024/04/11 10:42:39;;;;;;;9.75;4.35;;;;;;;;;;5376179;26;20020;-73
2024/04/11 10:45:10;;;;;;;9.52;3.92;;;;;;;;;;5372737;26;20066;-71
2024/04/11 10:47:36;;;;;;;14.52;4.22;;;;;;;;;;5371703;26;20001;-71
2024/04/11 10:50:09;;;;;;;9.20;3.53;;;;;;;;;;5359101;26;20046;-71
2024/04/11 10:52:48;;;;;;;5.70;3.50;;;;;;;;;;5374344;26;20001;-73
2024/04/11 10:55:23;;;;;;;5.07;2.67;;;;;;;;;;5373457;26;20004;-75
2024/04/11 11:01:26;;;;;;;8.80;2.88;;;;;;;;;;5364842;26;20011;-72
2024/04/11 11:06:19;;;;;;;8.45;3.30;;;;;;;;;;5366213;26;20642;-69
2024/04/11 11:08:45;;;;;;;3.38;2.15;;;;;;;;;;5376631;26;20023;-74
2024/04/11 11:11:18;;;;;;;6.85;2.58;;;;;;;;;;5358565;26;20040;-72
2024/04/11 11:13:44;;;;;;;5.72;2.38;;;;;;;;;;5360351;26;20073;-74
2024/04/11 11:16:12;;;;;;;8.23;3.13;;;;;;;;;;5353122;26;20079;-71
2024/04/11 11:18:43;;;;;;;4.22;2.03;;;;;;;;;;5366859;26;20018;-73
2024/04/11 11:21:13;;;;;;;9.40;4.25;;;;;;;;;;5390971;26;20724;-73
2024/04/11 11:23:45;;;;;;;8.15;3.50;;;;;;;;;;5369145;26;19996;-72
2024/04/11 11:26:11;;;;;;;11.48;3.88;;;;;;;;;;5366797;26;20085;-74
2024/04/11 11:28:38;;;;;;;10.80;3.97;;;;;;;;;;5369177;26;19996;-74
2024/04/11 11:31:04;;;;;;;7.43;2.13;;;;;;;;;;5375135;26;20014;-72
2024/04/11 11:33:30;;;;;;;8.23;3.50;;;;;;;;;;5374565;26;20363;-74
2024/04/11 11:35:55;;;;;;;7.00;3.00;;;;;;;;;;5371567;26;20069;-75
2024/04/11 11:38:22;;;;;;;6.70;2.22;;;;;;;;;;5369093;26;20432;-71
2024/04/11 11:40:54;;;;;;;5.70;2.13;;;;;;;;;;5378553;26;20080;-73
2024/04/11 11:43:19;;;;;;;;;;;;;;;;;;5396218;26;20000;-73
2024/04/11 11:46:17;;;;;;;5.05;2.40;;;;;;;;;;5367585;26;19933;-72
2024/04/11 11:48:31;;;;;;;7.35;2.70;;;;;;;;;;5368815;26;19997;-73
2024/04/11 11:51:05;;;;;;;4.93;2.03;;;;;;;;;;5365802;26;20001;-73
2024/04/11 11:53:45;;;;;;;9.65;2.63;;;;;;;;;;5370319;26;20008;-74
2024/04/11 11:56:12;;;;;;;8.93;4.15;;;;;;;;;;5397860;26;20001;-72
2024/04/11 11:58:43;;;;;;;3.55;1.80;;;;;;;;;;5373544;26;20036;-74
2024/04/11 12:03:56;;;;;;;5.75;1.80;;;;;;;;;;5368883;26;19976;-73
2024/04/11 12:06:22;;;;;;;4.63;1.73;;;;;;;;;;5414050;26;20001;-74
2024/04/11 12:08:48;;;;;;;4.32;2.20;;;;;;;;;;5378704;26;20012;-73
2024/04/11 12:11:21;;;;;;;4.30;2.47;;;;;;;;;;5359269;26;20016;-74
2024/04/11 12:13:51;;;;;;;10.15;3.85;;;;;;;;;;5372675;26;20008;-75
2024/04/11 12:16:17;;;;;;;4.75;2.05;;;;;;;;;;5373231;26;19995;-70
2024/04/11 12:18:48;;;;;;;4.30;2.00;;;;;;;;;;5375832;26;20055;-75
2024/04/11 12:21:18;;;;;;;3.70;1.73;;;;;;;;;;5399516;26;20000;-74
2024/04/11 12:23:47;;;;;;;4.53;2.45;;;;;;;;;;5374345;26;20003;-71
2024/04/11 12:26:15;;;;;;;3.53;1.70;;;;;;;;;;5367439;26;20965;-73
2024/04/11 12:28:45;;;;;;;4.97;2.63;;;;;;;;;;5366561;26;20008;-73
2024/04/11 12:31:15;;;;;;;10.05;4.07;;;;;;;;;;5372922;26;20072;-74
2024/04/11 12:33:51;;;;;;;7.25;3.17;;;;;;;;;;5377219;26;20067;-72
2024/04/11 12:39:13;;;;;;;8.75;2.10;;;;;;;;;;5370664;26;20015;-74
2024/04/11 12:41:43;;;;;;;4.47;2.50;;;;;;;;;;5373287;26;20007;-74
2024/04/11 12:44:11;;;;;;;6.88;2.60;;;;;;;;;;5373186;26;20000;-75
2024/04/11 12:46:56;;;;;;;3.58;2.00;;;;;;;;;;5371089;26;20007;-73
2024/04/11 12:49:25;;;;;;;5.78;2.13;;;;;;;;;;5372014;26;20078;-71
2024/04/11 12:52:00;;;;;;;4.25;2.10;;;;;;;;;;5371871;26;19996;-72
2024/04/11 12:54:26;;;;;;;5.97;2.70;;;;;;;;;;5368929;26;20024;-70
2024/04/11 12:57:17;;;;;;;3.40;2.03;;;;;;;;;;5370729;26;20000;-75
2024/04/11 12:59:45;;;;;;;6.28;2.33;;;;;;;;;;5357718;26;20324;-73
2024/04/11 13:02:19;;;;;;;8.40;3.03;;;;;;;;;;5374236;26;20073;-72
2024/04/11 13:04:49;;;;;;;2.85;1.80;;;;;;;;;;5372507;26;20327;-73
2024/04/11 13:07:19;;;;;;;1.85;1.63;;;;;;;;;;5374105;26;20015;-73
2024/04/11 13:09:56;;;;;;;6.57;2.33;;;;;;;;;;5355862;26;20547;-72
2024/04/11 13:12:25;;;;;;;3.70;2.35;;;;;;;;;;5370584;26;20288;-75
2024/04/11 13:15:09;;;;;;;6.38;4.05;;;;;;;;;;5370827;26;19996;-74
2024/04/11 13:17:43;;;;;;;10.07;2.70;;;;;;;;;;5355866;26;20007;-71
2024/04/11 13:20:34;;;;;;;5.43;2.38;;;;;;;;;;5370991;26;20007;-73
2024/04/11 13:23:20;;;;;;;6.07;2.20;;;;;;;;;;5371680;26;20074;-73
2024/04/11 13:25:47;;;;;;;5.95;2.55;;;;;;;;;;5371514;26;20008;-73
2024/04/11 13:28:16;;;;;;;5.72;1.77;;;;;;;;;;5367692;26;19996;-72
2024/04/11 13:30:46;;;;;;;8.30;4.53;;;;;;;;;;5368596;26;20034;-75
2024/04/11 13:33:15;;;;;;;3.88;2.00;;;;;;;;;;5376141;26;20000;-71
2024/04/11 13:35:53;;;;;;;5.38;2.47;;;;;;;;;;5368928;26;20077;-73
2024/04/11 13:38:24;;;;;;;3.83;1.63;;;;;;;;;;5370085;26;20004;-75
2024/04/11 13:41:15;;;;;;;8.18;2.55;;;;;;;;;;5365127;26;20478;-73
2024/04/11 13:43:42;;;;;;;5.40;1.75;;;;;;;;;;5357373;26;20032;-74
2024/04/11 13:46:08;;;;;;;5.60;2.28;;;;;;;;;;5369735;26;20081;-75
2024/04/11 13:48:50;;;;;;;6.45;2.50;;;;;;;;;;5366949;26;19996;-73
2024/04/11 13:51:17;;;;;;;8.00;2.45;;;;;;;;;;5372152;26;19996;-73
2024/04/11 13:53:45;;;;;;;8.07;2.10;;;;;;;;;;5363140;26;20011;-74
2024/04/11 13:56:14;;;;;;;5.55;1.55;;;;;;;;;;5372307;26;20036;-73
2024/04/11 13:58:50;;;;;;;3.40;1.35;;;;;;;;;;5373260;26;20116;-73
2024/04/11 14:01:28;;;;;;;3.85;1.88;;;;;;;;;;5360293;26;20000;-73
2024/04/11 14:03:54;;;;;;;3.95;1.35;;;;;;;;;;5373551;26;20008;-73
2024/04/11 14:08:47;;;;;;;2.38;1.40;;;;;;;;;;5371341;26;20001;-73
2024/04/11 14:11:29;;;;;;;2.97;1.08;;;;;;;;;;5401891;26;20059;-73
2024/04/11 14:13:55;;;;;;;3.03;1.52;;;;;;;;;;5402747;26;20004;-74
2024/04/11 14:16:51;;;;;;;8.52;1.55;;;;;;;;;;5400057;26;20078;-73
2024/04/11 14:19:07;;;;;;;8.15;2.03;;;;;;;;;;5375162;26;20011;-75
2024/04/11 14:24:35;;;;;;;23.90;16.83;;;;;;;;;;5376187;26;20054;-73
2024/04/11 14:27:06;;;;;;;4.20;1.80;;;;;;;;;;5377807;26;20004;-74
2024/04/11 14:29:32;;;;;;;;;;;;;;;;;;5378077;26;20004;-74
2024/04/11 14:31:58;;;;;;;2.38;1.20;;;;;;;;;;5406797;26;19926;-72
2024/04/11 14:35:08;;;;;;;5.20;3.47;;;;;;;;;;5377244;26;20004;-74
2024/04/11 14:39:50;;;;;;;5.05;2.45;;;;;;;;;;5379300;26;20441;-74
2024/04/11 14:42:24;;;;;;;10.30;6.00;;;;;;;;;;5377760;26;20028;-72
2024/04/11 14:44:51;;;;;;;5.22;1.48;;;;;;;;;;5374314;26;20240;-69
2024/04/11 14:47:19;;;;;;;3.33;1.63;;;;;;;;;;5376434;26;20082;-70
2024/04/11 14:49:48;;;;;;;3.95;1.67;;;;;;;;;;5375606;26;20008;-70
2024/04/11 14:52:19;;;;;;;3.17;1.40;;;;;;;;;;5375523;26;20000;-70
2024/04/11 14:54:52;;;;;;;5.00;2.55;;;;;;;;;;5374428;26;20036;-70
2024/04/11 14:57:24;;;;;;;6.57;1.80;;;;;;;;;;5373907;26;20011;-70
2024/04/11 14:59:58;;;;;;;3.03;1.38;;;;;;;;;;5374269;26;20000;-69
2024/04/11 15:02:28;;;;;;;4.00;1.48;;;;;;;;;;5375857;26;20351;-70
2024/04/11 15:05:00;;;;;;;;;;;;;;;;;;5347085;26;20000;-70
2024/04/11 15:07:29;;;;;;;2.17;1.13;;;;;;;;;;5375850;26;20315;-69
2024/04/11 15:09:59;;;;;;;3.25;1.30;;;;;;;;;;5376241;26;20000;-70